Time;durP1;ratioP1;P1;durP2;ratioP2;P2;SDS_P1;SDS_P2;PMS_P1;PMS_P2;Temp;Humidity;BMP_temperature;BMP_pressure;BME280_temperature;BME280_humidity;BME280_pressure;Samples;Min_cycle;Max_cycle;Signal;HPM_P1;HPM_P2
2023/12/23 00:00:26;;;;;;;;;;;;;;;4.09;100.00;99342.31;4984336;28;19922;-81
2023/12/23 00:02:51;;;;;;;;;;;;;;;4.10;100.00;99336.13;5004881;28;19972;-82
2023/12/23 00:05:24;;;;;;;;;;;;;;;3.97;100.00;99340.81;4983340;28;19965;-89
2023/12/23 00:07:49;;;;;;;;;;;;;;;4.07;100.00;99344.97;4982968;28;19934;-80
2023/12/23 00:10:14;;;;;;;;;;;;;;;4.10;100.00;99342.28;4984754;28;19940;-84
2023/12/23 00:12:40;;;;;;;;;;;;;;;3.95;100.00;99343.47;4983993;28;20289;-84
2023/12/23 00:15:05;;;;;;;;;;;;;;;3.89;100.00;99346.22;4983074;28;19969;-81
2023/12/23 00:17:30;;;;;;;;;;;;;;;4.12;100.00;99342.22;4982635;28;19925;-85
2023/12/23 00:19:56;;;;;;;;;;;;;;;7.55;100.00;99324.81;4984260;28;19929;-81
2023/12/23 00:22:21;;;;;;;;;;;;;;;5.27;100.00;99339.25;4983434;28;19922;-81
2023/12/23 00:24:46;;;;;;;;;;;;;;;4.84;100.00;99350.06;4983880;28;20419;-83
2023/12/23 00:27:11;;;;;;;;;;;;;;;4.55;100.00;99362.19;4982158;28;20409;-83
2023/12/23 00:29:37;;;;;;;;;;;;;;;4.51;100.00;99364.00;4983683;28;19922;-80
2023/12/23 00:32:02;;;;;;;;;;;;;;;4.40;100.00;99376.50;4982354;28;19928;-85
2023/12/23 00:34:27;;;;;;;;;;;;;;;4.35;100.00;99374.00;5005814;28;19932;-82
2023/12/23 00:36:52;;;;;;;;;;;;;;;4.32;100.00;99384.59;4982772;28;19933;-80
2023/12/23 00:39:18;;;;;;;;;;;;;;;4.27;100.00;99386.44;4982312;28;19930;-88
2023/12/23 00:41:43;;;;;;;;;;;;;;;4.37;100.00;99384.44;4977321;28;19972;-83
2023/12/23 00:44:09;;;;;;;;;;;;;;;4.24;100.00;99390.91;4983927;28;19996;-82
2023/12/23 00:46:34;;;;;;;;;;;;;;;4.23;100.00;99383.91;4982237;28;19922;-85
2023/12/23 00:49:02;;;;;;;;;;;;;;;4.26;100.00;99391.72;4984000;28;20321;-88
2023/12/23 00:51:27;;;;;;;;;;;;;;;4.37;100.00;99392.31;4983268;28;20012;-83
2023/12/23 00:53:52;;;;;;;;;;;;;;;4.31;100.00;99385.47;4981182;28;20017;-82
2023/12/23 00:56:21;;;;;;;;;;;;;;;4.17;100.00;99391.03;4982507;28;19921;-90
2023/12/23 00:58:46;;;;;;;;;;;;;;;4.22;100.00;99397.94;4980906;28;20014;-83
2023/12/23 01:01:12;;;;;;;;;;;;;;;4.38;100.00;99394.06;5004375;28;20020;-86
2023/12/23 01:03:37;;;;;;;;;;;;;;;4.24;100.00;99396.16;4983223;28;20401;-79
2023/12/23 01:06:02;;;;;;;;;;;;;;;4.23;100.00;99383.91;4983245;28;20025;-81
2023/12/23 01:08:28;;;;;;;;;;;;;;;4.23;100.00;99378.66;4981928;28;19957;-81
2023/12/23 01:10:53;;;;;;;;;;;;;;;4.29;100.00;99375.91;4981741;28;19980;-81
2023/12/23 01:13:19;;;;;;;;;;;;;;;4.34;100.00;99369.66;4982755;28;19944;-81
2023/12/23 01:15:44;;;;;;;;;;;;;;;4.19;100.00;99376.13;4981076;28;20013;-83
2023/12/23 01:18:10;;;;;;;;;;;;;;;4.21;100.00;99375.22;4981024;28;19929;-85
2023/12/23 01:20:38;;;;;;;;;;;;;;;4.22;100.00;99379.59;4983162;28;20315;-86
2023/12/23 01:23:03;;;;;;;;;;;;;;;4.18;100.00;99387.53;4982740;28;19925;-81
2023/12/23 01:25:28;;;;;;;;;;;;;;;4.04;100.00;99378.22;4982507;28;19922;-84
2023/12/23 01:27:53;;;;;;;;;;;;;;;4.16;100.00;99398.94;4982542;28;19965;-82
2023/12/23 01:30:19;;;;;;;;;;;;;;;4.09;100.00;99392.97;4982903;28;19918;-82
2023/12/23 01:32:44;;;;;;;;;;;;;;;3.96;100.00;99397.63;4981847;28;19922;-81
2023/12/23 01:35:09;;;;;;;;;;;;;;;3.90;100.00;99396.91;4982663;28;19925;-82
2023/12/23 01:37:34;;;;;;;;;;;;;;;3.91;100.00;99393.38;5001230;28;19926;-86
2023/12/23 01:40:00;;;;;;;;;;;;;;;3.96;100.00;99400.25;5006401;28;19921;-84
2023/12/23 01:42:26;;;;;;;;;;;;;;;3.94;100.00;99398.56;4982706;28;20369;-84
2023/12/23 01:44:51;;;;;;;;;;;;;;;3.90;100.00;99412.63;4981630;28;19922;-81
2023/12/23 01:47:17;;;;;;;;;;;;;;;3.95;100.00;99410.78;4980525;28;20293;-85
2023/12/23 01:49:43;;;;;;;;;;;;;;;3.96;100.00;99407.25;4982885;28;19941;-84
2023/12/23 01:52:08;;;;;;;;;;;;;;;3.91;100.00;99409.97;4983350;28;19922;-85
2023/12/23 01:54:34;;;;;;;;;;;;;;;3.87;100.00;99397.81;4981847;28;20039;-82
2023/12/23 01:56:59;;;;;;;;;;;;;;;3.89;100.00;99411.75;4983489;28;20058;-82
2023/12/23 01:59:25;;;;;;;;;;;;;;;4.01;100.00;99410.66;4980862;28;19922;-84
2023/12/23 02:01:51;;;;;;;;;;;;;;;4.11;100.00;99411.28;4982694;28;19928;-82
2023/12/23 02:04:17;;;;;;;;;;;;;;;3.92;100.00;99408.22;4981678;28;19970;-79
2023/12/23 02:06:42;;;;;;;;;;;;;;;3.89;100.00;99421.38;4984858;28;19964;-82
2023/12/23 02:09:07;;;;;;;;;;;;;;;3.96;100.00;99417.75;4986657;28;20535;-84
2023/12/23 02:11:44;;;;;;;;;;;;;;;3.95;100.00;99421.25;4986511;28;20421;-85
2023/12/23 02:14:17;;;;;;;;;;;;;;;3.98;100.00;99415.94;4988191;28;19925;-85
2023/12/23 02:16:45;;;;;;;;;;;;;;;3.94;100.00;99419.53;4985257;28;20293;-86
2023/12/23 02:19:11;;;;;;;;;;;;;;;4.10;100.00;99425.28;4986547;28;20328;-81
2023/12/23 02:21:36;;;;;;;;;;;;;;;3.94;100.00;99416.91;4986719;28;19977;-87
2023/12/23 02:24:01;;;;;;;;;;;;;;;3.91;100.00;99416.97;5010085;28;19914;-86
2023/12/23 02:26:29;;;;;;;;;;;;;;;3.93;100.00;99400.31;4986197;28;19962;-84
2023/12/23 02:28:56;;;;;;;;;;;;;;;3.91;100.00;99398.63;4986050;28;19917;-85
2023/12/23 02:31:21;;;;;;;;;;;;;;;3.92;100.00;99397.72;4985204;28;19930;-82
2023/12/23 02:33:47;;;;;;;;;;;;;;;4.05;100.00;99391.31;4984712;28;19925;-81
2023/12/23 02:36:13;;;;;;;;;;;;;;;4.17;100.00;99405.91;4985258;28;20349;-92
2023/12/23 02:38:38;;;;;;;;;;;;;;;3.92;100.00;99405.59;4985363;28;19926;-86
2023/12/23 02:41:03;;;;;;;;;;;;;;;3.86;100.00;99400.47;4986012;28;20362;-84
2023/12/23 02:43:28;;;;;;;;;;;;;;;3.92;100.00;99405.59;4984577;28;20012;-83
2023/12/23 02:45:54;;;;;;;;;;;;;;;3.78;100.00;99412.00;4985510;28;19922;-85
2023/12/23 02:48:19;;;;;;;;;;;;;;;3.77;100.00;99412.03;4984613;28;19929;-84
2023/12/23 02:50:46;;;;;;;;;;;;;;;3.94;100.00;99411.66;4986039;28;19921;-88
2023/12/23 06:22:44;;;;;;;;;;;;;;;4.09;100.00;99353.66;5030001;28;20157;-85
2023/12/23 06:25:09;;;;;;;;;;;;;;;3.92;100.00;99342.69;5022088;28;20004;-82
2023/12/23 06:27:34;;;;;;;;;;;;;;;4.03;100.00;99348.53;5030349;28;19922;-82
2023/12/23 06:30:00;;;;;;;;;;;;;;;4.08;100.00;99356.31;5031707;28;19917;-79
2023/12/23 06:32:25;;;;;;;;;;;;;;;4.23;100.00;99355.06;5031560;28;19924;-80
2023/12/23 06:34:50;;;;;;;;;;;;;;;4.23;100.00;99357.69;5028996;28;19924;-80
2023/12/23 06:37:15;;;;;;;;;;;;;;;4.11;100.00;99354.47;5031641;28;19960;-80
2023/12/23 06:39:41;;;;;;;;;;;;;;;4.12;100.00;99361.44;5031508;28;19917;-80
2023/12/23 06:42:06;;;;;;;;;;;;;;;4.14;100.00;99370.13;5031669;28;19917;-78
2023/12/23 06:44:31;;;;;;;;;;;;;;;4.22;100.00;99351.59;5031509;28;19960;-78
2023/12/23 06:46:57;;;;;;;;;;;;;;;3.95;100.00;99353.09;5031519;28;20398;-81
2023/12/23 06:49:24;;;;;;;;;;;;;;;3.94;100.00;99349.63;5028899;28;19921;-78
2023/12/23 06:51:49;;;;;;;;;;;;;;;3.85;100.00;99362.94;5032099;28;20292;-79
2023/12/23 06:54:14;;;;;;;;;;;;;;;3.82;100.00;99357.75;5035015;28;19921;-79
2023/12/23 06:56:39;;;;;;;;;;;;;;;4.03;100.00;99351.16;5034832;28;20051;-81
2023/12/23 06:59:09;;;;;;;;;;;;;;;3.79;100.00;99347.34;5034993;28;19925;-80
2023/12/23 07:01:35;;;;;;;;;;;;;;;3.77;100.00;99349.13;5032748;28;19922;-80
2023/12/23 07:04:01;;;;;;;;;;;;;;;3.76;100.00;99353.50;5032663;28;19969;-82
2023/12/23 07:06:26;;;;;;;;;;;;;;;3.73;100.00;99356.19;5033147;28;20402;-82
2023/12/23 07:08:51;;;;;;;;;;;;;;;3.78;100.00;99350.84;5034711;28;19971;-82
2023/12/23 07:11:17;;;;;;;;;;;;;;;3.94;100.00;99344.38;5034997;28;19925;-84
2023/12/23 07:13:42;;;;;;;;;;;;;;;4.06;100.00;99358.97;5033191;28;20011;-81
2023/12/23 07:16:07;;;;;;;;;;;;;;;3.86;100.00;99359.44;5034666;28;19928;-81
2023/12/23 07:18:33;;;;;;;;;;;;;;;3.77;100.00;99341.28;5034400;28;19924;-82
2023/12/23 07:20:59;;;;;;;;;;;;;;;3.76;100.00;99353.50;5033119;28;20334;-82
2023/12/23 07:23:24;;;;;;;;;;;;;;;3.99;100.00;99349.53;5034474;28;20435;-82
2023/12/23 07:25:49;;;;;;;;;;;;;;;3.90;100.00;99355.81;5034552;28;20056;-82
2023/12/23 07:28:14;;;;;;;;;;;;;;;3.88;100.00;99341.00;5034554;28;19917;-82
2023/12/23 07:30:44;;;;;;;;;;;;;;;3.84;100.00;99342.00;5034283;28;19956;-81
2023/12/23 07:33:13;;;;;;;;;;;;;;;3.89;100.00;99334.88;5033864;28;20019;-82
2023/12/23 07:35:38;;;;;;;;;;;;;;;4.00;100.00;99357.34;5032137;28;19917;-82
2023/12/23 07:38:03;;;;;;;;;;;;;;;4.09;100.00;99351.03;5034243;28;19931;-80
2023/12/23 07:40:29;;;;;;;;;;;;;;;3.91;100.00;99351.44;5034205;28;19940;-81
2023/12/23 07:42:54;;;;;;;;;;;;;;;3.90;100.00;99349.72;5034036;28;19924;-81
2023/12/23 07:45:21;;;;;;;;;;;;;;;3.82;100.00;99340.25;5034262;28;20380;-81
2023/12/23 07:47:47;;;;;;;;;;;;;;;3.79;100.00;99345.56;5033660;28;20249;-80
2023/12/23 07:50:12;;;;;;;;;;;;;;;3.87;100.00;99349.78;5032759;28;19921;-81
2023/12/23 07:52:39;;;;;;;;;;;;;;;3.90;100.00;99361.06;5032626;28;20024;-82
2023/12/23 07:55:04;;;;;;;;;;;;;;;3.92;100.00;99358.41;5033913;28;19979;-82
2023/12/23 07:57:30;;;;;;;;;;;;;;;3.87;100.00;99360.28;5032528;28;20408;-82
2023/12/23 07:59:55;;;;;;;;;;;;;;;3.90;100.00;99368.94;5033595;28;19917;-81
2023/12/23 08:02:20;;;;;;;;;;;;;;;4.00;100.00;99351.22;5033775;28;20008;-80
2023/12/23 08:04:45;;;;;;;;;;;;;;;3.86;100.00;99356.81;5030077;28;20280;-80
2023/12/23 08:07:11;;;;;;;;;;;;;;;3.77;100.00;99354.38;5033741;28;20044;-80
2023/12/23 08:09:36;;;;;;;;;;;;;;;3.79;100.00;99363.06;5033481;28;19917;-81
2023/12/23 08:12:02;;;;;;;;;;;;;;;4.00;100.00;99366.97;5033746;28;20375;-80
2023/12/23 08:14:27;;;;;;;;;;;;;;;4.04;100.00;99360.75;5033526;28;20417;-81
2023/12/23 08:16:52;;;;;;;;;;;;;;;3.94;100.00;99369.72;5033398;28;20337;-80
2023/12/23 08:19:17;;;;;;;;;;;;;;;4.02;100.00;99357.31;5030638;28;20279;-83
2023/12/23 08:21:43;;;;;;;;;;;;;;;3.93;100.00;99360.16;5033133;28;20301;-83
2023/12/23 08:24:08;;;;;;;;;;;;;;;3.94;100.00;99346.13;5007733;28;19917;-81
2023/12/23 08:26:33;;;;;;;;;;;;;;;3.93;100.00;99354.91;5032265;28;20379;-81
2023/12/23 08:28:59;;;;;;;;;;;;;;;3.78;100.00;99341.25;5032011;28;19918;-82
2023/12/23 08:31:24;;;;;;;;;;;;;;;3.77;100.00;99362.25;5031836;28;19924;-81
2023/12/23 08:33:50;;;;;;;;;;;;;;;3.96;100.00;99358.31;5033023;28;19917;-82
2023/12/23 08:36:15;;;;;;;;;;;;;;;3.77;100.00;99370.09;5031986;28;19917;-81
2023/12/23 08:38:40;;;;;;;;;;;;;;;4.04;100.00;99373.88;5031802;28;19917;-82
2023/12/23 08:41:05;;;;;;;;;;;;;;;3.88;100.00;99381.22;5033044;28;19917;-79
2023/12/23 08:43:31;;;;;;;;;;;;;;;3.93;100.00;99402.09;5033049;28;20360;-80
2023/12/23 08:45:56;;;;;;;;;;;;;;;4.07;100.00;99394.78;5032835;28;19927;-81
2023/12/23 08:58:42;;;;;;;;;;;;;;;4.11;100.00;99400.81;5198162;22;20399;-82
2023/12/23 09:01:07;;;;;;;;;;;;;;;4.02;100.00;99414.13;5032764;28;19925;-82
2023/12/23 09:03:32;;;;;;;;;;;;;;;3.91;100.00;99414.34;5031831;28;19924;-83
2023/12/23 09:05:58;;;;;;;;;;;;;;;3.82;100.00;99418.88;5032471;28;20391;-83
2023/12/23 09:08:24;;;;;;;;;;;;;;;3.90;100.00;99417.88;5032851;28;19917;-83
2023/12/23 09:10:49;;;;;;;;;;;;;;;4.09;100.00;99424.44;5031135;28;19932;-83
2023/12/23 09:13:14;;;;;;;;;;;;;;;3.89;100.00;99419.63;5031272;28;20532;-83
2023/12/23 09:15:40;;;;;;;;;;;;;;;3.98;100.00;99422.03;5032092;28;20268;-83
2023/12/23 09:18:05;;;;;;;;;;;;;;;3.84;100.00;99424.09;5031082;28;19921;-82
2023/12/23 09:20:31;;;;;;;;;;;;;;;3.86;100.00;99416.22;5032231;28;20362;-83
2023/12/23 09:22:56;;;;;;;;;;;;;;;3.75;100.00;99426.91;5032268;28;20379;-81
2023/12/23 09:25:22;;;;;;;;;;;;;;;3.84;100.00;99428.50;5032498;28;19924;-82
2023/12/23 09:27:47;;;;;;;;;;;;;;;3.72;100.00;99446.19;5030959;28;19928;-81
2023/12/23 09:30:12;;;;;;;;;;;;;;;3.73;100.00;99431.31;5030974;28;19971;-86
2023/12/23 09:32:37;;;;;;;;;;;;;;;3.75;100.00;99430.41;5032115;28;20276;-83
2023/12/23 09:35:03;;;;;;;;;;;;;;;3.84;100.00;99428.50;5032068;28;19976;-84
2023/12/23 09:37:28;;;;;;;;;;;;;;;3.99;100.00;99430.81;5032155;28;19921;-83
2023/12/23 09:39:54;;;;;;;;;;;;;;;3.80;100.00;99436.41;5032058;28;19917;-82
2023/12/23 09:42:21;;;;;;;;;;;;;;;3.81;100.00;99435.53;5030772;28;19921;-83
2023/12/23 09:44:46;;;;;;;;;;;;;;;3.83;100.00;99430.25;5031218;28;20415;-86
2023/12/23 09:47:11;;;;;;;;;;;;;;;3.87;100.00;99436.28;5030615;28;19921;-82
2023/12/23 09:49:37;;;;;;;;;;;;;;;3.99;100.00;99438.66;5032020;28;19921;-84
2023/12/23 09:52:02;;;;;;;;;;;;;;;3.93;100.00;99438.78;5031932;28;19917;-82
2023/12/23 09:54:35;;;;;;;;;;;;;;;3.98;100.00;99445.66;5032084;28;19921;-85
2023/12/23 09:57:00;;;;;;;;;;;;;;;3.85;100.00;99430.22;5030325;28;19925;-82
2023/12/23 09:59:26;;;;;;;;;;;;;;;3.72;100.00;99438.34;5031873;28;19975;-82
2023/12/23 10:01:52;;;;;;;;;;;;;;;3.84;100.00;99434.59;5031811;28;19925;-83
2023/12/23 10:04:19;;;;;;;;;;;;;;;3.94;100.00;99430.00;5031849;28;19949;-93
2023/12/23 10:06:44;;;;;;;;;;;;;;;3.81;100.00;99442.50;5031616;28;20365;-85
2023/12/23 10:09:10;;;;;;;;;;;;;;;3.74;100.00;99430.44;5031569;28;19925;-82
2023/12/23 10:11:35;;;;;;;;;;;;;;;3.76;100.00;99432.13;5030228;28;19940;-82
2023/12/23 10:14:00;;;;;;;;;;;;;;;3.70;100.00;99437.50;5031113;28;20023;-81
2023/12/23 10:16:26;;;;;;;;;;;;;;;3.65;100.00;99439.34;5031564;28;20372;-83
2023/12/23 10:18:51;;;;;;;;;;;;;;;3.70;100.00;99437.50;5031319;28;20339;-83
2023/12/23 10:21:18;;;;;;;;;;;;;;;3.92;100.00;99437.06;5031015;28;20023;-83
2023/12/23 10:23:44;;;;;;;;;;;;;;;3.91;100.00;99414.34;5031296;28;19925;-81
2023/12/23 10:26:10;;;;;;;;;;;;;;;3.72;100.00;99424.34;5030442;28;19963;-82
2023/12/23 10:28:38;;;;;;;;;;;;;;;3.88;100.00;99417.03;5033354;28;19921;-84
2023/12/23 10:31:05;;;;;;;;;;;;;;;3.79;100.00;99416.34;5034468;28;19970;-82
2023/12/23 10:33:36;;;;;;;;;;;;;;;3.69;100.00;99404.34;5016427;28;19928;-81
2023/12/23 10:36:01;;;;;;;;;;;;;;;3.77;100.00;99433.84;5034514;28;19917;-84
2023/12/23 10:38:27;;;;;;;;;;;;;;;3.75;100.00;99421.66;5035094;28;20284;-82
2023/12/23 10:40:52;;;;;;;;;;;;;;;3.81;100.00;99409.31;5035093;28;19975;-81
2023/12/23 10:43:18;;;;;;;;;;;;;;;3.87;100.00;99420.56;5033740;28;19917;-81
2023/12/23 10:45:47;;;;;;;;;;;;;;;3.70;100.00;99423.53;5033603;28;19921;-82
2023/12/23 10:48:13;;;;;;;;;;;;;;;3.70;100.00;99421.78;5035178;28;20352;-79
2023/12/23 10:50:40;;;;;;;;;;;;;;;3.78;100.00;99421.59;5037124;28;19917;-82
2023/12/23 10:53:07;;;;;;;;;;;;;;;3.79;100.00;99425.97;5036141;28;19917;-82
2023/12/23 10:55:33;;;;;;;;;;;;;;;3.82;100.00;99415.41;5034748;28;19979;-83
2023/12/23 10:57:59;;;;;;;;;;;;;;;3.96;100.00;99412.50;5033897;28;20347;-82
2023/12/23 11:00:24;;;;;;;;;;;;;;;3.88;100.00;99419.66;5035013;28;19928;-82
2023/12/23 11:02:52;;;;;;;;;;;;;;;3.84;100.00;99418.88;5034758;28;19917;-82
2023/12/23 11:05:18;;;;;;;;;;;;;;;3.87;100.00;99420.56;5035253;28;19928;-90
2023/12/23 11:07:45;;;;;;;;;;;;;;;3.90;100.00;99417.88;5034777;28;20015;-82
2023/12/23 11:10:12;;;;;;;;;;;;;;;3.75;100.00;99430.41;5034858;28;19921;-81
2023/12/23 11:12:38;;;;;;;;;;;;;;;3.76;100.00;99426.03;5033461;28;19975;-82
2023/12/23 11:15:03;;;;;;;;;;;;;;;3.74;100.00;99423.44;5033616;28;19917;-83
2023/12/23 11:17:29;;;;;;;;;;;;;;;3.74;100.00;99418.19;5034734;28;19917;-85
2023/12/23 11:19:58;;;;;;;;;;;;;;;3.75;100.00;99430.41;5033357;28;19964;-85
2023/12/23 11:22:24;;;;;;;;;;;;;;;3.77;100.00;99420.75;5034421;28;19921;-83
2023/12/23 11:24:49;;;;;;;;;;;;;;;3.82;100.00;99426.75;5034496;28;19983;-82
2023/12/23 11:27:34;;;;;;;;;;;;;;;3.72;100.00;99435.72;5033163;28;20331;-87
2023/12/23 11:30:08;;;;;;;;;;;;;;;3.79;100.00;99434.69;5034250;28;20360;-81
2023/12/23 11:32:39;;;;;;;;;;;;;;;3.81;100.00;99442.50;5034599;28;19918;-82
2023/12/23 11:35:05;;;;;;;;;;;;;;;3.78;100.00;99456.56;5033282;28;20346;-81
2023/12/23 11:38:05;;;;;;;;;;;;;;;3.82;100.00;99452.13;5034034;28;20016;-80
2023/12/23 11:40:31;;;;;;;;;;;;;;;3.89;100.00;99458.09;4955067;28;19925;-83
2023/12/23 11:42:57;;;;;;;;;;;;;;;3.87;100.00;99460.75;5017616;28;19921;-84
2023/12/23 11:45:23;;;;;;;;;;;;;;;3.92;100.00;99452.78;5034026;28;19979;-83
2023/12/23 11:47:49;;;;;;;;;;;;;;;3.77;100.00;99453.97;5033981;28;19925;-85
2023/12/23 11:50:15;;;;;;;;;;;;;;;3.75;100.00;99456.63;5033781;28;19963;-82
2023/12/23 11:52:40;;;;;;;;;;;;;;;3.84;100.00;99445.06;5034049;28;20011;-81
2023/12/23 11:55:06;;;;;;;;;;;;;;;3.98;100.00;99448.25;5032850;28;19928;-86
2023/12/23 11:57:32;;;;;;;;;;;;;;;3.88;100.00;99448.47;5032492;28;20288;-82
2023/12/23 12:00:00;;;;;;;;;;;;;;;3.74;100.00;99440.94;5033901;28;19921;-82
2023/12/23 12:02:25;;;;;;;;;;;;;;;3.80;100.00;99446.06;5033714;28;20048;-83
2023/12/23 12:04:51;;;;;;;;;;;;;;;3.74;100.00;99441.78;5032054;28;20015;-81
2023/12/23 12:07:17;;;;;;;;;;;;;;;3.76;100.00;99445.22;5032139;28;19921;-81
2023/12/23 12:09:43;;;;;;;;;;;;;;;3.77;100.00;99444.34;5033587;28;19928;-82
2023/12/23 12:12:08;;;;;;;;;;;;;;;3.75;100.00;99435.66;5032425;28;19921;-82
2023/12/23 12:14:33;;;;;;;;;;;;;;;3.68;100.00;99441.03;5033424;28;20380;-81
2023/12/23 12:16:59;;;;;;;;;;;;;;;3.77;100.00;99423.38;5032147;28;20016;-82
2023/12/23 12:19:24;;;;;;;;;;;;;;;3.63;100.00;99415.78;5033322;28;20277;-82
2023/12/23 12:21:49;;;;;;;;;;;;;;;3.88;100.00;99419.66;5033473;28;19921;-82
2023/12/23 12:24:15;;;;;;;;;;;;;;;3.72;100.00;99414.75;5033224;28;19921;-82
2023/12/23 12:26:41;;;;;;;;;;;;;;;3.72;100.00;99409.50;5014226;28;19921;-82
2023/12/23 12:29:06;;;;;;;;;;;;;;;3.77;100.00;99420.75;5033092;28;19917;-82
2023/12/23 12:31:32;;;;;;;;;;;;;;;3.72;100.00;99408.63;5032798;28;19928;-82
2023/12/23 12:33:57;;;;;;;;;;;;;;;3.68;100.00;99413.06;5033268;28;20273;-82
2023/12/23 12:36:23;;;;;;;;;;;;;;;3.69;100.00;99417.44;5033045;28;19917;-82
2023/12/23 12:38:49;;;;;;;;;;;;;;;3.80;100.00;99404.97;5032929;28;19925;-82
2023/12/23 12:41:15;;;;;;;;;;;;;;;3.76;100.00;99405.06;5032841;28;19944;-82
2023/12/23 12:43:40;;;;;;;;;;;;;;;3.74;100.00;99427.81;5031789;28;19917;-82
2023/12/23 12:46:06;;;;;;;;;;;;;;;3.74;100.00;99412.97;5032802;28;19967;-81
2023/12/23 12:48:32;;;;;;;;;;;;;;;3.67;100.00;99406.13;5032915;28;20268;-81
2023/12/23 12:50:57;;;;;;;;;;;;;;;3.66;100.00;99409.63;5032252;28;19970;-81
2023/12/23 12:53:23;;;;;;;;;;;;;;;3.70;100.00;99413.94;5032680;28;19921;-81
2023/12/23 12:55:48;;;;;;;;;;;;;;;3.70;100.00;99416.56;5033049;28;19972;-84
2023/12/23 12:58:18;;;;;;;;;;;;;;;3.80;100.00;99420.69;5030271;28;20335;-88
2023/12/23 13:00:43;;;;;;;;;;;;;;;3.76;100.00;99423.41;5027016;28;19937;-82
2023/12/23 13:03:12;;;;;;;;;;;;;;;3.80;100.00;99412.84;5028288;28;19928;-80
2023/12/23 13:05:37;;;;;;;;;;;;;;;3.77;100.00;99407.66;5027852;28;19925;-81
2023/12/23 13:08:03;;;;;;;;;;;;;;;3.84;100.00;99415.38;5028627;28;19925;-84
2023/12/23 13:10:29;;;;;;;;;;;;;;;3.98;100.00;99411.56;5033526;28;20340;-81
2023/12/23 13:12:55;;;;;;;;;;;;;;;3.98;100.00;99423.81;5029820;28;19929;-80
2023/12/23 13:15:20;;;;;;;;;;;;;;;3.81;100.00;99414.56;5032779;28;19928;-80
2023/12/23 13:17:46;;;;;;;;;;;;;;;10.72;100.00;99405.38;5032780;28;19917;-82
2023/12/23 13:20:12;;;;;;;;;;;;;;;5.92;100.00;99413.59;5032297;28;19935;-84
2023/12/23 13:22:37;;;;;;;;;;;;;;;4.78;100.00;99419.31;5030123;28;19928;-84
2023/12/23 13:25:03;;;;;;;;;;;;;;;4.42;100.00;99408.84;5029980;28;19921;-82
2023/12/23 13:27:28;;;;;;;;;;;;;;;4.26;100.00;99418.81;5029634;28;19975;-82
2023/12/23 13:29:54;;;;;;;;;;;;;;;4.11;100.00;99406.06;5030835;28;20016;-84
2023/12/23 13:32:19;;;;;;;;;;;;;;;4.10;100.00;99406.94;5032167;28;19917;-83
2023/12/23 13:34:44;;;;;;;;;;;;;;;4.03;100.00;99415.84;5032414;28;19921;-83
2023/12/23 13:37:10;;;;;;;;;;;;;;;3.99;100.00;99413.28;5031900;28;19948;-85
2023/12/23 13:39:35;;;;;;;;;;;;;;;3.92;100.00;99411.69;5030744;28;19921;-82
2023/12/23 13:42:01;;;;;;;;;;;;;;;3.94;100.00;99409.03;5029762;28;20355;-84
2023/12/23 13:44:27;;;;;;;;;;;;;;;4.00;100.00;99414.16;5031532;28;19974;-87
2023/12/23 13:46:53;;;;;;;;;;;;;;;3.89;100.00;99416.16;5031712;28;19952;-85
2023/12/23 13:49:19;;;;;;;;;;;;;;;3.90;100.00;99421.34;5031975;28;19940;-88
2023/12/23 13:51:44;;;;;;;;;;;;;;;4.07;100.00;99436.72;5030949;28;20368;-84
2023/12/23 13:54:09;;;;;;;;;;;;;;;3.90;100.00;99433.59;5031786;28;19928;-83
2023/12/23 13:56:35;;;;;;;;;;;;;;;3.94;100.00;99437.88;5028793;28;19982;-85
2023/12/23 13:59:00;;;;;;;;;;;;;;;3.96;100.00;99442.19;5031334;28;19951;-82
2023/12/23 14:01:25;;;;;;;;;;;;;;;3.92;100.00;99437.06;5032097;28;20019;-83
2023/12/23 14:03:51;;;;;;;;;;;;;;;3.92;100.00;99432.66;5035961;28;19956;-84
2023/12/23 14:06:16;;;;;;;;;;;;;;;3.88;100.00;99451.09;5035780;28;20365;-85
2023/12/23 14:08:41;;;;;;;;;;;;;;;3.85;100.00;99446.81;5034616;28;20004;-84
2023/12/23 14:11:07;;;;;;;;;;;;;;;3.94;100.00;99446.63;5036115;28;19913;-80
2023/12/23 14:13:32;;;;;;;;;;;;;;;3.84;100.00;99436.34;5034716;28;20374;-82
2023/12/23 14:15:57;;;;;;;;;;;;;;;3.86;100.00;99437.19;5034780;28;19928;-84
2023/12/23 14:18:23;;;;;;;;;;;;;;;3.88;100.00;99436.25;5036113;28;19918;-84
2023/12/23 14:20:48;;;;;;;;;;;;;;;3.87;100.00;99434.53;5034189;28;19978;-83
2023/12/23 14:23:14;;;;;;;;;;;;;;;3.86;100.00;99443.31;5035561;28;19996;-84
2023/12/23 14:25:39;;;;;;;;;;;;;;;3.84;100.00;99444.22;5035424;28;20304;-81
2023/12/23 14:28:04;;;;;;;;;;;;;;;3.84;100.00;99445.06;5034330;28;19961;-83
2023/12/23 14:30:30;;;;;;;;;;;;;;;3.90;100.00;99454.59;5035236;28;20011;-83
2023/12/23 14:32:55;;;;;;;;;;;;;;;3.92;100.00;99450.16;5034101;28;19917;-81
2023/12/23 14:35:21;;;;;;;;;;;;;;;3.84;100.00;99452.94;5035299;28;19972;-81
2023/12/23 14:37:47;;;;;;;;;;;;;;;3.93;100.00;99458.00;5035161;28;19924;-84
2023/12/23 14:40:12;;;;;;;;;;;;;;;3.89;100.00;99453.69;5034118;28;19917;-86
2023/12/23 14:42:37;;;;;;;;;;;;;;;3.77;100.00;99454.81;5033969;28;19963;-82
2023/12/23 14:45:03;;;;;;;;;;;;;;;3.80;100.00;99462.63;5035163;28;20024;-85
2023/12/23 14:47:28;;;;;;;;;;;;;;;3.82;100.00;99452.13;5049443;28;19921;-82
2023/12/23 14:49:53;;;;;;;;;;;;;;;3.73;100.00;99452.28;5035155;28;19928;-82
2023/12/23 14:52:19;;;;;;;;;;;;;;;3.75;100.00;99464.50;5035058;28;19933;-82
2023/12/23 14:54:47;;;;;;;;;;;;;;;3.80;100.00;99469.63;5034826;28;19921;-82
2023/12/23 14:57:12;;;;;;;;;;;;;;;3.95;100.00;99484.19;5032489;28;19921;-81
2023/12/23 14:59:38;;;;;;;;;;;;;;;3.75;100.00;99482.84;5034804;28;20008;-81
2023/12/23 15:02:03;;;;;;;;;;;;;;;3.77;100.00;99486.28;5035021;28;20299;-81
2023/12/23 15:04:29;;;;;;;;;;;;;;;3.76;100.00;99478.44;5034911;28;19917;-82
2023/12/23 15:06:54;;;;;;;;;;;;;;;3.70;100.00;99483.81;5034884;28;19921;-80
2023/12/23 15:09:19;;;;;;;;;;;;;;;3.71;100.00;99491.63;5034746;28;19917;-81
2023/12/23 15:11:44;;;;;;;;;;;;;;;3.86;100.00;99484.34;5033483;28;19928;-85
2023/12/23 15:14:10;;;;;;;;;;;;;;;3.87;100.00;99473.84;5032865;28;19936;-83
2023/12/23 15:16:35;;;;;;;;;;;;;;;3.82;100.00;99483.56;5034417;28;19925;-80
2023/12/23 15:19:03;;;;;;;;;;;;;;;3.84;100.00;99481.75;5033553;28;19933;-81
2023/12/23 15:21:28;;;;;;;;;;;;;;;3.81;100.00;99477.47;5034213;28;19917;-84
2023/12/23 15:23:55;;;;;;;;;;;;;;;3.85;100.00;99478.25;5034596;28;20387;-82
2023/12/23 15:26:20;;;;;;;;;;;;;;;3.82;100.00;99484.41;5035075;28;20248;-84
2023/12/23 15:28:46;;;;;;;;;;;;;;;3.78;100.00;99472.28;5033138;28;20376;-81
2023/12/23 15:31:11;;;;;;;;;;;;;;;3.91;100.00;99479.88;5033050;28;19923;-82
2023/12/23 15:33:36;;;;;;;;;;;;;;;3.94;100.00;99488.56;5034084;28;19975;-84
2023/12/23 15:36:01;;;;;;;;;;;;;;;3.84;100.00;99496.63;5033966;28;20491;-83
2023/12/23 15:38:30;;;;;;;;;;;;;;;3.86;100.00;99505.31;5033710;28;19972;-90
2023/12/23 15:40:55;;;;;;;;;;;;;;;3.82;100.00;99496.66;5033624;28;20257;-86
2023/12/23 15:43:21;;;;;;;;;;;;;;;3.80;100.00;99506.34;5031692;28;19963;-82
2023/12/23 15:45:46;;;;;;;;;;;;;;;3.77;100.00;99494.13;5033974;28;19917;-87
2023/12/23 15:48:11;;;;;;;;;;;;;;;3.85;100.00;99503.63;5033394;28;20299;-91
2023/12/23 15:50:37;;;;;;;;;;;;;;;3.91;100.00;99503.47;5034340;28;19917;-84
2023/12/23 15:53:03;;;;;;;;;;;;;;;3.84;100.00;99496.63;5034054;28;19921;-82
2023/12/23 15:55:28;;;;;;;;;;;;;;;3.86;100.00;99502.72;5033761;28;19917;-83
2023/12/23 15:57:54;;;;;;;;;;;;;;;3.77;100.00;99490.66;5030431;28;19975;-84
2023/12/23 16:00:20;;;;;;;;;;;;;;;3.76;100.00;99495.03;5032428;28;19921;-81
2023/12/23 16:02:47;;;;;;;;;;;;;;;3.87;100.00;99483.47;5033683;28;19921;-82
2023/12/23 16:05:12;;;;;;;;;;;;;;;3.82;100.00;99496.66;5032528;28;20135;-83
2023/12/23 16:07:37;;;;;;;;;;;;;;;3.89;100.00;99492.16;5033691;28;20026;-82
2023/12/23 16:10:03;;;;;;;;;;;;;;;3.81;100.00;99497.56;5033661;28;19917;-83
2023/12/23 16:12:28;;;;;;;;;;;;;;;3.76;100.00;99488.94;5032509;28;20265;-82
2023/12/23 16:14:54;;;;;;;;;;;;;;;3.82;100.00;99491.44;5033396;28;19917;-84
2023/12/23 16:17:19;;;;;;;;;;;;;;;3.87;100.00;99494.81;5033531;28;19921;-82
2023/12/23 16:19:45;;;;;;;;;;;;;;;3.97;100.00;99483.25;5033268;28;19971;-83